Time;durP1;ratioP1;P1;durP2;ratioP2;P2;SDS_P1;SDS_P2;PMS_P1;PMS_P2;Temp;Humidity;BMP_temperature;BMP_pressure;BME280_temperature;BME280_humidity;BME280_pressure;Samples;Min_cycle;Max_cycle;Signal;HPM_P1;HPM_P2
2022/05/28 00:01:54;;;;;;;18.73;9.93;;;23.70;99.90;;;;;;4942530;28;20489;-81
2022/05/28 00:04:22;;;;;;;18.40;9.10;;;23.80;99.90;;;;;;4973447;28;20043;-83
2022/05/28 00:07:46;;;;;;;14.82;8.98;;;23.80;99.90;;;;;;4997731;23;20049;-82
2022/05/28 00:10:17;;;;;;;17.17;8.73;;;23.80;99.90;;;;;;5056394;28;20040;-82
2022/05/28 00:16:27;;;;;;;16.73;8.35;;;23.80;99.90;;;;;;5089617;22;20387;-84
2022/05/28 00:18:55;;;;;;;14.23;9.20;;;23.80;99.90;;;;;;5038842;28;20080;-84
2022/05/28 00:25:29;;;;;;;19.98;8.02;;;23.30;99.90;;;;;;5055522;28;20394;-85
2022/05/28 00:28:03;;;;;;;12.98;8.82;;;23.40;99.90;;;;;;5014518;28;20081;-85
2022/05/28 00:30:34;;;;;;;15.02;8.88;;;23.50;99.90;;;;;;5031306;28;20055;-83
2022/05/28 00:33:02;;;;;;;16.10;9.02;;;23.50;99.90;;;;;;5030490;28;20057;-80
2022/05/28 00:35:30;;;;;;;15.40;8.90;;;23.50;99.90;;;;;;5030929;28;20053;-79
2022/05/28 00:37:57;;;;;;;16.85;8.73;;;23.20;99.90;;;;;;5030714;28;20061;-81
2022/05/28 00:40:27;;;;;;;15.82;8.90;;;23.40;99.90;;;;;;5015088;28;20119;-82
2022/05/28 00:43:03;;;;;;;13.85;8.13;;;23.20;99.90;;;;;;5014885;28;20483;-81
2022/05/28 00:45:33;;;;;;;23.58;10.48;;;23.30;99.90;;;;;;5014789;28;20506;-80
2022/05/28 00:48:03;;;;;;;19.77;8.80;;;23.40;99.90;;;;;;5030445;28;20057;-82
2022/05/28 00:50:36;;;;;;;11.82;7.88;;;23.20;99.90;;;;;;5014824;28;20072;-81
2022/05/28 00:53:04;;;;;;;21.38;9.40;;;23.00;99.90;;;;;;5041678;28;20055;-84
2022/05/28 00:55:34;;;;;;;18.95;8.35;;;22.90;99.90;;;;;;5055507;28;20036;-83
2022/05/28 00:59:23;;;;;;;12.68;8.27;;;22.80;99.90;;;;;;5059602;28;20126;-82
2022/05/28 01:02:43;;;;;;;;;;;;;;;;;;;;;
2022/05/28 01:08:49;;;;;;;21.75;9.43;;;23.00;99.90;;;;;;5252223;22;20049;-79
2022/05/28 01:11:49;;;;;;;19.73;10.35;;;23.00;99.90;;;;;;5072613;28;20108;-80
2022/05/28 01:14:25;;;;;;;17.98;9.45;;;23.00;99.90;;;;;;5061088;28;20044;-79
2022/05/28 01:16:57;;;;;;;19.92;9.70;;;22.90;99.90;;;;;;5034408;28;20036;-79
2022/05/28 01:19:28;;;;;;;14.55;8.60;;;22.70;99.90;;;;;;5034062;28;20498;-83
2022/05/28 01:21:56;;;;;;;18.75;9.60;;;22.50;99.90;;;;;;5034416;28;20033;-80
2022/05/28 01:25:15;;;;;;;16.67;9.35;;;22.50;99.90;;;;;;5034372;28;20427;-83
2022/05/28 01:27:50;;;;;;;19.83;10.45;;;22.40;99.90;;;;;;4991817;28;20423;-83
2022/05/28 01:44:02;;;;;;;17.25;9.88;;;22.50;99.90;;;;;;5084311;22;20098;-86
2022/05/28 01:46:33;;;;;;;17.45;10.13;;;22.50;99.90;;;;;;5054534;28;20048;-82
2022/05/28 01:49:01;;;;;;;15.13;10.00;;;22.40;99.90;;;;;;5053686;28;20044;-83
2022/05/28 01:51:34;;;;;;;21.75;10.35;;;22.40;99.90;;;;;;5037986;28;20048;-82
2022/05/28 01:54:07;;;;;;;15.68;9.60;;;22.50;99.90;;;;;;5053891;28;20398;-82
2022/05/28 01:56:37;;;;;;;17.90;9.75;;;22.40;99.90;;;;;;5054455;28;20041;-83
2022/05/28 01:59:05;;;;;;;17.63;9.57;;;22.10;99.90;;;;;;5053979;28;20056;-82
2022/05/28 02:01:33;;;;;;;17.65;9.50;;;22.20;99.90;;;;;;5071866;28;20570;-81
2022/05/28 02:04:06;;;;;;;23.27;10.18;;;22.30;99.90;;;;;;5054171;28;20049;-79
2022/05/28 02:06:35;;;;;;;17.13;9.65;;;22.20;99.90;;;;;;5054563;28;20107;-83
2022/05/28 02:09:10;;;;;;;15.73;9.85;;;22.30;99.90;;;;;;5053404;28;20135;-84
2022/05/28 02:11:56;;;;;;;17.05;9.25;;;22.20;99.90;;;;;;5037942;28;20076;-80
2022/05/28 02:14:40;;;;;;;14.85;9.13;;;21.90;99.90;;;;;;5033610;28;20506;-82
2022/05/28 02:17:48;;;;;;;13.90;9.05;;;22.10;99.90;;;;;;5034019;28;20045;-80
2022/05/28 02:21:04;;;;;;;16.55;9.70;;;22.10;99.90;;;;;;4974274;28;20062;-82
2022/05/28 02:23:46;;;;;;;21.92;9.70;;;21.90;99.90;;;;;;4964896;28;20061;-79
2022/05/28 02:26:30;;;;;;;15.43;10.50;;;21.90;99.90;;;;;;5033913;28;20128;-82
2022/05/28 02:29:00;;;;;;;19.08;8.77;;;21.90;99.90;;;;;;5033407;28;20495;-79
2022/05/28 02:31:29;;;;;;;13.23;8.07;;;21.80;99.90;;;;;;5038443;28;20044;-81
2022/05/28 02:33:58;;;;;;;16.10;8.48;;;21.70;99.90;;;;;;5054428;28;20067;-80
2022/05/28 02:36:25;;;;;;;19.30;9.15;;;21.80;99.90;;;;;;5055477;28;20038;-81
2022/05/28 02:38:53;;;;;;;14.90;9.07;;;21.90;99.90;;;;;;5053445;28;20470;-81
2022/05/28 02:41:21;;;;;;;16.98;8.43;;;21.80;99.90;;;;;;5053901;28;20102;-81
2022/05/28 02:43:49;;;;;;;16.92;9.13;;;21.50;99.90;;;;;;5054823;28;20128;-80
2022/05/28 02:46:17;;;;;;;16.75;8.65;;;21.10;99.90;;;;;;5054959;28;20627;-82
2022/05/28 02:48:45;;;;;;;15.02;9.23;;;21.30;99.90;;;;;;5054754;28;20049;-82
2022/05/28 02:51:19;;;;;;;17.65;8.20;;;21.40;99.90;;;;;;5054043;28;20033;-82
2022/05/28 02:53:48;;;;;;;16.08;9.15;;;21.30;99.90;;;;;;5037435;28;20440;-81
2022/05/28 02:56:16;;;;;;;15.45;8.85;;;21.60;99.90;;;;;;5055069;28;20033;-80
2022/05/28 02:58:44;;;;;;;17.77;9.50;;;21.70;99.90;;;;;;5053778;28;20041;-85
2022/05/28 03:01:33;;;;;;;14.43;9.90;;;21.60;99.90;;;;;;5037530;28;20041;-85
2022/05/28 03:04:09;;;;;;;13.82;9.07;;;21.60;99.90;;;;;;5037257;28;20099;-83
2022/05/28 03:06:37;;;;;;;18.05;9.65;;;21.70;99.90;;;;;;5037366;28;20053;-79
2022/05/28 03:09:07;;;;;;;13.70;9.13;;;21.70;99.90;;;;;;5037198;28;20068;-82
2022/05/28 03:11:36;;;;;;;12.40;8.23;;;21.70;99.90;;;;;;5054871;28;20041;-81
2022/05/28 03:14:04;;;;;;;16.98;8.05;;;21.70;99.90;;;;;;5037018;28;20040;-81
2022/05/28 03:16:31;;;;;;;13.23;9.07;;;21.80;99.90;;;;;;5054502;28;20037;-81
2022/05/28 03:18:59;;;;;;;18.20;9.02;;;21.90;99.90;;;;;;5053396;28;20040;-81
2022/05/28 03:21:26;;;;;;;17.15;9.32;;;21.80;99.90;;;;;;5036915;28;20373;-84
2022/05/28 03:24:38;;;;;;;15.32;8.18;;;21.60;99.90;;;;;;4973278;28;20057;-85
2022/05/28 03:27:06;;;;;;;15.45;9.23;;;21.60;99.90;;;;;;5025500;28;20061;-86
2022/05/28 03:29:33;;;;;;;15.27;9.18;;;21.60;99.90;;;;;;5021563;28;20053;-84
2022/05/28 03:32:01;;;;;;;19.02;9.75;;;21.50;99.90;;;;;;5021080;28;20395;-82
2022/05/28 03:34:28;;;;;;;16.10;9.40;;;21.50;99.90;;;;;;5036895;28;20443;-84
2022/05/28 03:36:56;;;;;;;19.40;9.20;;;21.60;99.90;;;;;;5036675;28;20450;-82
2022/05/28 03:39:23;;;;;;;17.45;8.25;;;21.80;99.90;;;;;;5036289;28;20041;-84
2022/05/28 03:41:51;;;;;;;15.95;9.60;;;21.70;99.90;;;;;;5035194;28;20049;-82
2022/05/28 03:44:18;;;;;;;13.95;8.88;;;21.50;99.90;;;;;;5053948;28;20455;-82
2022/05/28 03:46:46;;;;;;;14.93;8.52;;;21.60;99.90;;;;;;5035998;28;20072;-82
2022/05/28 03:49:28;;;;;;;17.70;9.55;;;21.60;99.90;;;;;;5035916;28;20073;-80
2022/05/28 03:51:56;;;;;;;11.52;8.20;;;21.80;99.90;;;;;;5053441;28;20126;-80
2022/05/28 03:54:23;;;;;;;21.08;9.13;;;21.50;99.90;;;;;;5036199;28;20072;-81
2022/05/28 03:56:56;;;;;;;16.33;9.50;;;21.30;99.90;;;;;;5053709;28;20616;-79
2022/05/28 03:59:23;;;;;;;17.40;9.45;;;21.30;99.90;;;;;;5053528;28;20134;-80
2022/05/28 04:01:53;;;;;;;19.58;9.77;;;21.40;99.90;;;;;;5053872;28;20045;-82
2022/05/28 04:05:26;;;;;;;;;;;;;;;;;;;;;
2022/05/28 04:08:29;;;;;;;16.33;8.80;;;21.80;99.90;;;;;;5052911;28;20049;-83
2022/05/28 04:11:57;;;;;;;;;;;;;;;;;;;;;
2022/05/28 04:14:49;;;;;;;15.90;10.43;;;21.90;99.90;;;;;;5035567;28;20060;-77
2022/05/28 04:17:16;;;;;;;19.05;9.65;;;21.90;99.90;;;;;;5053498;28;20072;-81
2022/05/28 04:19:44;;;;;;;16.45;9.98;;;21.60;99.90;;;;;;5053168;28;20049;-83
2022/05/28 04:22:11;;;;;;;17.90;9.90;;;21.80;99.90;;;;;;5035416;28;20052;-80
2022/05/28 04:24:38;;;;;;;19.35;9.82;;;22.00;99.90;;;;;;5035855;28;20110;-82
2022/05/28 04:27:21;;;;;;;20.73;10.07;;;22.10;99.90;;;;;;5053442;28;20033;-82
2022/05/28 04:29:49;;;;;;;16.08;10.18;;;22.20;99.90;;;;;;5035334;28;20518;-82
2022/05/28 04:32:17;;;;;;;20.58;11.02;;;22.30;99.90;;;;;;5052811;28;20076;-80
2022/05/28 04:34:44;;;;;;;16.63;10.52;;;22.50;99.90;;;;;;5035160;28;20103;-82
2022/05/28 04:37:11;;;;;;;18.27;10.63;;;22.20;99.90;;;;;;5052617;28;20107;-80
2022/05/28 04:39:39;;;;;;;22.38;10.43;;;22.20;99.90;;;;;;5052747;28;20073;-81
2022/05/28 04:42:06;;;;;;;20.98;10.95;;;22.10;99.90;;;;;;5052621;28;20735;-81
2022/05/28 04:44:34;;;;;;;16.08;10.25;;;21.90;99.90;;;;;;5035226;28;20072;-81
2022/05/28 04:47:01;;;;;;;17.17;10.43;;;22.00;99.90;;;;;;5035056;28;20119;-81
2022/05/28 04:49:28;;;;;;;16.85;10.10;;;22.00;99.90;;;;;;5052665;28;20045;-81
2022/05/28 04:51:55;;;;;;;15.35;10.52;;;21.70;99.90;;;;;;5052513;28;20120;-79
2022/05/28 04:54:23;;;;;;;17.85;10.20;;;21.80;99.90;;;;;;5051514;28;20102;-79
2022/05/28 04:56:50;;;;;;;19.80;10.48;;;22.00;99.90;;;;;;5052581;28;20094;-81
2022/05/28 04:59:18;;;;;;;19.75;10.57;;;22.00;99.90;;;;;;5052213;28;20040;-80
2022/05/28 05:01:45;;;;;;;20.90;10.82;;;22.10;99.90;;;;;;5052589;28;20116;-80
2022/05/28 05:04:12;;;;;;;18.70;10.48;;;21.90;99.90;;;;;;5052145;28;20036;-81
2022/05/28 05:06:40;;;;;;;16.63;9.93;;;21.90;99.90;;;;;;5052537;28;20428;-82
2022/05/28 05:09:07;;;;;;;23.17;10.68;;;21.80;99.90;;;;;;5034097;28;20044;-82
2022/05/28 05:11:37;;;;;;;18.05;9.93;;;21.50;99.90;;;;;;5034778;28;20043;-82
2022/05/28 05:14:05;;;;;;;15.23;10.40;;;21.60;99.90;;;;;;5058114;28;20127;-81
2022/05/28 05:16:32;;;;;;;16.92;10.13;;;21.60;99.90;;;;;;5072403;28;20071;-81
2022/05/28 05:18:59;;;;;;;17.40;9.82;;;21.50;99.90;;;;;;5072041;28;20052;-80
2022/05/28 05:21:27;;;;;;;15.90;9.52;;;21.80;99.90;;;;;;5054647;28;20044;-81
2022/05/28 05:23:54;;;;;;;15.38;10.68;;;21.80;99.90;;;;;;5072071;28;20056;-81
2022/05/28 05:26:22;;;;;;;16.13;10.02;;;21.70;99.90;;;;;;5054672;28;20499;-83
2022/05/28 05:28:50;;;;;;;15.38;10.13;;;21.90;99.90;;;;;;5053853;28;20460;-83
2022/05/28 05:31:18;;;;;;;15.63;9.85;;;21.80;99.90;;;;;;5072355;28;20109;-81
2022/05/28 05:33:45;;;;;;;15.02;10.68;;;21.90;99.90;;;;;;5053950;28;20140;-82
2022/05/28 05:36:13;;;;;;;15.88;9.68;;;21.90;99.90;;;;;;5054213;28;20478;-80
2022/05/28 05:38:41;;;;;;;15.55;10.77;;;22.00;99.90;;;;;;5071382;28;20040;-84
2022/05/28 05:41:09;;;;;;;18.35;10.45;;;22.00;99.90;;;;;;5054162;28;20071;-83
2022/05/28 05:43:37;;;;;;;19.00;10.23;;;22.40;99.90;;;;;;5037300;28;20443;-83
2022/05/28 05:46:04;;;;;;;18.42;10.23;;;22.50;99.90;;;;;;5071794;28;20094;-84
2022/05/28 05:48:32;;;;;;;19.15;10.77;;;22.50;99.90;;;;;;5053526;28;20583;-84
2022/05/28 05:51:11;;;;;;;15.10;9.88;;;22.70;99.90;;;;;;5071376;28;20041;-82
2022/05/28 05:53:39;;;;;;;16.15;9.73;;;22.80;99.90;;;;;;5070873;28;20049;-80
2022/05/28 05:56:08;;;;;;;18.88;10.23;;;22.80;99.90;;;;;;5037612;28;20044;-82
2022/05/28 05:58:35;;;;;;;18.27;11.98;;;22.70;99.90;;;;;;5071069;28;20435;-80
2022/05/28 06:01:04;;;;;;;22.45;11.40;;;22.60;99.90;;;;;;5037296;28;20443;-82
2022/05/28 06:03:33;;;;;;;22.00;11.00;;;22.60;99.90;;;;;;5071142;28;20036;-82
2022/05/28 06:06:03;;;;;;;16.55;9.80;;;22.70;99.90;;;;;;5071020;28;20048;-83
2022/05/28 06:08:31;;;;;;;16.73;10.25;;;22.80;99.90;;;;;;5037225;28;20384;-84
2022/05/28 06:11:07;;;;;;;20.73;9.88;;;22.90;99.90;;;;;;5071664;28;20079;-82
2022/05/28 06:13:48;;;;;;;19.90;10.13;;;22.90;99.90;;;;;;5053227;28;20037;-83
2022/05/28 06:16:18;;;;;;;18.90;10.55;;;22.80;99.90;;;;;;5033791;28;20068;-83
2022/05/28 06:18:46;;;;;;;22.58;10.85;;;22.80;99.90;;;;;;5017254;28;20045;-83
2022/05/28 06:21:14;;;;;;;21.48;10.50;;;23.00;99.90;;;;;;5017261;28;20495;-82
2022/05/28 06:23:41;;;;;;;22.67;12.55;;;23.10;99.90;;;;;;5051021;28;20452;-83
2022/05/28 06:26:10;;;;;;;16.73;9.93;;;23.10;99.90;;;;;;5034093;28;20041;-84
2022/05/28 06:28:39;;;;;;;22.77;11.38;;;23.00;99.90;;;;;;5017180;28;20059;-84
2022/05/28 06:31:09;;;;;;;24.63;10.98;;;23.00;99.90;;;;;;5034129;28;20400;-84
2022/05/28 06:33:38;;;;;;;17.67;10.07;;;23.20;99.90;;;;;;5017202;28;20055;-83
2022/05/28 06:36:07;;;;;;;21.17;9.93;;;23.40;99.90;;;;;;5033450;28;20045;-78
2022/05/28 06:38:35;;;;;;;16.85;9.95;;;23.60;99.90;;;;;;5050904;28;20114;-80
2022/05/28 06:41:03;;;;;;;34.55;22.80;;;23.60;99.90;;;;;;5033371;28;20123;-80
2022/05/28 06:43:31;;;;;;;60.75;39.72;;;23.50;99.90;;;;;;5056135;28;20277;-77
2022/05/28 06:46:07;;;;;;;51.90;33.40;;;23.50;99.90;;;;;;5047208;28;20033;-77
2022/05/28 06:48:38;;;;;;;40.00;26.02;;;23.60;99.90;;;;;;5047092;28;20044;-79
2022/05/28 06:51:06;;;;;;;40.40;27.33;;;23.70;99.90;;;;;;5046833;28;20043;-79
2022/05/28 06:53:43;;;;;;;63.00;36.03;;;23.80;99.90;;;;;;5061957;28;20041;-79
2022/05/28 06:56:12;;;;;;;30.23;18.55;;;23.70;99.90;;;;;;5026755;28;20044;-78
2022/05/28 06:58:40;;;;;;;22.23;13.18;;;23.70;99.90;;;;;;5037465;28;20049;-79
2022/05/28 07:01:11;;;;;;;27.63;15.80;;;23.60;99.90;;;;;;5044992;28;20392;-77
2022/05/28 07:03:42;;;;;;;89.43;60.13;;;23.70;99.90;;;;;;5039433;28;20088;-80
2022/05/28 07:06:11;;;;;;;51.47;35.80;;;24.00;99.90;;;;;;5041420;28;20496;-77
2022/05/28 07:08:39;;;;;;;20.43;14.07;;;24.10;99.90;;;;;;5019314;28;20511;-75
2022/05/28 07:11:07;;;;;;;24.40;13.50;;;24.10;99.90;;;;;;5023278;28;20095;-77
2022/05/28 07:13:35;;;;;;;22.35;12.02;;;24.20;99.90;;;;;;5025636;28;20122;-76
2022/05/28 07:16:05;;;;;;;17.98;11.02;;;24.10;99.90;;;;;;5041619;28;20037;-77
2022/05/28 07:18:37;;;;;;;21.00;11.57;;;24.10;99.90;;;;;;5045523;28;20045;-80
2022/05/28 07:21:06;;;;;;;25.63;11.88;;;24.30;99.90;;;;;;5063083;28;20045;-80
2022/05/28 07:23:42;;;;;;;24.90;10.85;;;24.30;99.90;;;;;;5033473;28;20052;-82
2022/05/28 07:26:16;;;;;;;22.13;11.15;;;24.40;99.90;;;;;;5036677;28;20131;-80
2022/05/28 07:28:46;;;;;;;20.63;10.45;;;24.30;99.90;;;;;;5053646;28;20044;-79
2022/05/28 07:31:20;;;;;;;17.65;9.73;;;24.30;99.90;;;;;;5054234;28;20044;-79
2022/05/28 07:33:48;;;;;;;17.67;10.15;;;24.30;99.90;;;;;;5053783;28;20433;-79
2022/05/28 07:36:19;;;;;;;14.80;9.50;;;24.50;99.90;;;;;;5054108;28;20068;-80
2022/05/28 07:38:47;;;;;;;15.52;9.15;;;24.60;99.90;;;;;;5035835;28;20077;-79
2022/05/28 07:41:17;;;;;;;14.25;8.43;;;24.60;99.90;;;;;;5054101;28;20385;-79
2022/05/28 07:43:45;;;;;;;19.23;10.05;;;24.70;99.90;;;;;;5053521;28;20451;-78
2022/05/28 07:46:13;;;;;;;86.55;54.25;;;24.80;99.90;;;;;;5036214;28;20049;-80
2022/05/28 07:48:42;;;;;;;43.85;25.63;;;24.80;99.90;;;;;;5033579;28;20053;-77
2022/05/28 07:51:09;;;;;;;13.27;10.63;;;24.70;99.90;;;;;;5062206;28;20056;-77
2022/05/28 07:53:37;;;;;;;17.40;10.00;;;24.60;99.90;;;;;;5045110;28;20373;-77
2022/05/28 07:56:05;;;;;;;17.88;9.90;;;24.80;99.90;;;;;;5028907;28;20060;-79
2022/05/28 07:58:34;;;;;;;30.02;19.75;;;25.10;99.90;;;;;;5043635;28;20041;-78
2022/05/28 08:01:04;;;;;;;15.38;10.75;;;25.10;99.90;;;;;;5046007;28;20048;-78
2022/05/28 08:03:32;;;;;;;16.27;10.35;;;25.20;99.90;;;;;;5044959;28;20056;-78
2022/05/28 08:05:59;;;;;;;17.02;9.93;;;25.30;99.90;;;;;;5043257;28;20488;-80
2022/05/28 08:08:27;;;;;;;16.50;9.50;;;25.40;99.90;;;;;;5041809;28;20079;-77
2022/05/28 08:10:54;;;;;;;19.95;10.45;;;25.30;99.90;;;;;;5035330;28;20412;-79
2022/05/28 08:13:23;;;;;;;16.75;9.77;;;25.30;99.90;;;;;;5059320;28;20064;-80
2022/05/28 08:15:54;;;;;;;19.10;9.40;;;25.60;99.90;;;;;;5050568;28;20079;-80
2022/05/28 08:18:24;;;;;;;19.00;10.45;;;25.60;99.90;;;;;;5045667;28;20048;-79
2022/05/28 08:23:40;;;;;;;19.55;9.40;;;25.60;99.90;;;;;;5040751;28;20048;-80
2022/05/28 08:26:08;;;;;;;17.45;10.88;;;25.60;99.90;;;;;;5044037;28;20037;-79
2022/05/28 08:28:37;;;;;;;21.30;9.20;;;25.70;99.90;;;;;;5044087;28;20090;-80
2022/05/28 08:31:05;;;;;;;17.48;9.32;;;25.80;99.90;;;;;;5045854;28;20056;-81
2022/05/28 08:33:39;;;;;;;15.13;8.85;;;25.90;99.90;;;;;;5062203;28;20400;-81
2022/05/28 08:36:08;;;;;;;20.92;8.95;;;26.00;99.90;;;;;;5044386;28;20500;-79
2022/05/28 08:38:37;;;;;;;12.48;8.65;;;26.00;99.90;;;;;;5037682;28;20041;-78
2022/05/28 08:41:09;;;;;;;14.68;8.75;;;26.10;99.90;;;;;;5071078;28;20048;-80
2022/05/28 08:43:59;;;;;;;18.80;9.70;;;26.40;99.90;;;;;;5071826;28;20072;-76
2022/05/28 08:46:30;;;;;;;24.58;15.25;;;26.50;99.90;;;;;;5063234;28;20055;-79
2022/05/28 08:48:57;;;;;;;27.30;17.67;;;26.60;99.90;;;;;;5067213;28;20037;-78
2022/05/28 08:51:53;;;;;;;22.38;13.80;;;26.60;99.90;;;;;;5066789;28;20643;-79
2022/05/28 08:54:59;;;;;;;19.38;12.02;;;26.80;99.90;;;;;;5060112;28;20442;-79
2022/05/28 08:57:59;;;;;;;15.38;10.23;;;26.90;99.90;;;;;;5058208;28;20082;-80
2022/05/28 09:00:41;;;;;;;22.83;9.07;;;27.10;99.90;;;;;;5040817;28;20542;-81
2022/05/28 09:03:15;;;;;;;18.20;9.32;;;26.90;99.90;;;;;;5053488;28;20052;-78
2022/05/28 09:05:57;;;;;;;20.67;10.02;;;26.90;99.90;;;;;;5051225;28;20041;-80
2022/05/28 09:08:34;;;;;;;17.20;9.10;;;26.80;99.90;;;;;;5050875;28;20045;-80
2022/05/28 09:11:16;;;;;;;55.45;35.92;;;26.70;99.90;;;;;;5052469;28;20048;-78
2022/05/28 09:13:50;;;;;;;18.40;10.05;;;26.70;99.90;;;;;;5058930;28;20093;-76
2022/05/28 09:16:24;;;;;;;37.25;24.38;;;26.90;99.90;;;;;;5070400;28;20109;-76
2022/05/28 09:18:54;;;;;;;56.55;39.40;;;26.80;99.90;;;;;;5051921;28;20414;-77
2022/05/28 09:21:22;;;;;;;23.20;13.23;;;27.00;99.90;;;;;;5070680;28;20044;-77
2022/05/28 09:24:05;;;;;;;19.00;11.50;;;27.20;99.90;;;;;;5053036;28;20044;-77
2022/05/28 09:26:53;;;;;;;13.80;8.95;;;27.30;99.90;;;;;;5052595;28;20044;-77
2022/05/28 09:29:36;;;;;;;13.50;8.23;;;27.20;99.90;;;;;;5053610;28;20178;-74
2022/05/28 09:32:28;;;;;;;14.73;9.88;;;27.40;99.90;;;;;;5048126;28;20068;-78
2022/05/28 09:35:13;;;;;;;16.95;10.27;;;27.40;99.30;;;;;;5065749;28;20423;-77
2022/05/28 09:37:58;;;;;;;17.85;10.00;;;27.60;99.40;;;;;;5054944;28;20064;-82
2022/05/28 09:40:50;;;;;;;16.48;8.27;;;27.70;99.30;;;;;;5017477;28;20049;-84
2022/05/28 09:43:42;;;;;;;13.52;9.25;;;27.90;98.90;;;;;;5033706;28;20098;-80
2022/05/28 09:46:41;;;;;;;19.00;9.52;;;27.90;98.50;;;;;;5051638;28;20047;-80
2022/05/28 09:49:24;;;;;;;16.77;9.37;;;27.70;98.40;;;;;;5017947;28;20091;-78
2022/05/28 09:51:51;;;;;;;12.50;8.82;;;27.40;98.60;;;;;;5034017;28;20306;-81
2022/05/28 09:54:23;;;;;;;12.68;7.95;;;27.50;99.00;;;;;;5050581;28;20040;-79
2022/05/28 09:56:53;;;;;;;13.25;9.10;;;27.50;98.70;;;;;;5033970;28;20408;-78
2022/05/28 09:59:32;;;;;;;13.38;8.18;;;27.40;99.50;;;;;;5017195;28;20073;-79
2022/05/28 10:02:07;;;;;;;20.20;8.88;;;27.50;99.90;;;;;;5051621;28;20071;-76
2022/05/28 10:04:49;;;;;;;15.77;10.07;;;27.40;99.90;;;;;;5034224;28;20060;-81
2022/05/28 10:07:29;;;;;;;13.15;8.10;;;27.30;99.60;;;;;;5050988;28;20045;-77
2022/05/28 10:09:56;;;;;;;;;;;27.30;99.60;;;;;;5050602;28;20705;-78
2022/05/28 10:12:30;;;;;;;14.43;8.13;;;27.40;99.90;;;;;;5017211;28;19928;-80
2022/05/28 10:14:59;;;;;;;13.65;9.40;;;27.40;99.90;;;;;;5066678;28;20075;-77
2022/05/28 10:17:30;;;;;;;21.08;8.63;;;27.60;99.70;;;;;;5071420;28;20381;-80
2022/05/28 10:19:59;;;;;;;14.52;8.02;;;27.60;99.80;;;;;;5071080;28;20383;-79
2022/05/28 10:22:29;;;;;;;15.70;8.85;;;27.50;99.90;;;;;;5067820;28;20138;-80
2022/05/28 10:25:04;;;;;;;13.07;8.35;;;27.50;99.80;;;;;;5029126;28;20064;-77
2022/05/28 10:27:46;;;;;;;14.30;8.18;;;27.60;99.60;;;;;;5026148;28;20099;-77
2022/05/28 10:30:30;;;;;;;13.23;8.02;;;27.60;99.40;;;;;;5040579;28;20485;-78
2022/05/28 10:32:58;;;;;;;13.38;7.78;;;27.40;99.50;;;;;;5061329;28;20387;-77
2022/05/28 10:35:28;;;;;;;12.00;7.85;;;27.50;99.80;;;;;;5052594;28;20144;-78
2022/05/28 10:38:06;;;;;;;15.93;7.97;;;27.50;99.90;;;;;;5026580;28;20688;-77
2022/05/28 10:40:48;;;;;;;13.05;8.55;;;27.30;99.90;;;;;;5055946;28;20047;-77
2022/05/28 10:43:25;;;;;;;16.60;8.25;;;27.30;99.60;;;;;;5057959;28;20064;-77
2022/05/28 10:46:21;;;;;;;12.55;7.95;;;27.20;99.40;;;;;;5048767;28;20179;-74
2022/05/28 10:49:11;;;;;;;15.68;7.97;;;27.30;99.60;;;;;;5029657;28;20442;-77
2022/05/28 10:51:58;;;;;;;14.43;8.40;;;27.20;99.70;;;;;;5058578;28;20114;-74
2022/05/28 10:54:37;;;;;;;14.82;8.43;;;27.10;99.00;;;;;;5044198;28;20343;-76
2022/05/28 10:57:25;;;;;;;14.03;8.20;;;27.10;99.20;;;;;;5061884;28;20503;-80
2022/05/28 11:00:02;;;;;;;14.18;7.90;;;27.20;99.30;;;;;;5063075;28;20087;-76
2022/05/28 11:03:07;;;;;;;11.75;8.55;;;27.20;99.50;;;;;;5046349;28;20045;-79
2022/05/28 11:05:57;;;;;;;15.30;8.30;;;27.20;99.80;;;;;;5046540;28;20171;-76
2022/05/28 11:08:57;;;;;;;36.47;21.63;;;27.30;99.90;;;;;;5064273;28;20471;-76
2022/05/28 11:11:46;;;;;;;36.67;28.67;;;27.40;99.90;;;;;;5046484;28;20124;-77
2022/05/28 11:14:53;;;;;;;22.63;12.98;;;27.50;99.40;;;;;;5042827;28;20110;-77
2022/05/28 11:17:45;;;;;;;22.58;13.98;;;27.60;99.90;;;;;;5054390;28;20435;-78
2022/05/28 11:20:21;;;;;;;92.97;66.47;;;27.90;99.90;;;;;;5054441;28;20045;-76
2022/05/28 11:23:26;;;;;;;23.33;12.00;;;28.00;99.80;;;;;;5055900;28;20061;-79
2022/05/28 11:26:02;;;;;;;48.88;32.75;;;27.90;98.80;;;;;;5053102;28;20045;-75
2022/05/28 11:28:41;;;;;;;46.50;36.58;;;28.10;98.60;;;;;;5036244;28;20127;-77
2022/05/28 11:31:38;;;;;;;44.73;30.93;;;28.10;98.60;;;;;;5036216;28;20052;-80
2022/05/28 11:34:27;;;;;;;23.85;16.70;;;28.00;98.80;;;;;;5019810;28;20285;-83
2022/05/28 11:41:19;;;;;;;13.63;8.75;;;27.80;98.80;;;;;;5053271;28;20095;-80
2022/05/28 11:44:13;;;;;;;12.57;7.72;;;27.80;98.60;;;;;;5029737;28;20126;-78
2022/05/28 11:46:52;;;;;;;14.38;8.35;;;27.60;98.20;;;;;;5033104;28;20053;-79
2022/05/28 11:52:40;;;;;;;15.90;9.68;;;27.50;98.30;;;;;;5013543;28;20033;-81
2022/05/28 11:55:32;;;;;;;15.57;8.95;;;27.40;98.90;;;;;;5040505;28;20048;-80
2022/05/28 11:58:15;;;;;;;15.73;8.25;;;27.40;99.60;;;;;;5055846;28;20044;-82
2022/05/28 12:04:32;;;;;;;14.43;8.55;;;27.30;99.70;;;;;;5039701;28;20044;-80
2022/05/28 12:07:29;;;;;;;11.57;8.40;;;27.20;99.90;;;;;;5041092;28;20037;-81
2022/05/28 12:10:01;;;;;;;18.38;8.90;;;27.30;99.50;;;;;;5036006;28;20044;-80
2022/05/28 12:12:58;;;;;;;14.52;9.40;;;27.40;99.80;;;;;;5057257;28;20064;-77
2022/05/28 12:15:44;;;;;;;12.93;7.60;;;27.40;99.90;;;;;;5038546;28;20395;-79
2022/05/28 12:18:15;;;;;;;13.95;7.97;;;27.30;99.10;;;;;;5039752;28;20048;-80
2022/05/28 12:20:54;;;;;;;14.73;8.30;;;27.40;99.20;;;;;;5056465;28;20037;-76
2022/05/28 12:23:38;;;;;;;16.95;8.75;;;27.50;99.60;;;;;;5021510;28;20041;-79
2022/05/28 12:30:47;;;;;;;17.08;9.15;;;27.60;99.90;;;;;;5051887;28;20036;-81
2022/05/28 12:38:41;;;;;;;15.35;9.43;;;27.80;99.90;;;;;;5039442;28;20123;-76
2022/05/28 12:41:30;;;;;;;13.00;8.48;;;27.70;99.90;;;;;;5023077;28;20068;-77
2022/05/28 12:44:26;;;;;;;24.02;8.75;;;27.60;99.90;;;;;;5058113;28;20049;-80
2022/05/28 12:46:59;;;;;;;15.88;7.93;;;27.40;99.90;;;;;;5038088;28;20060;-78
2022/05/28 12:50:31;;;;;;;;;;;;;;;;;;;;;
2022/05/28 12:54:18;;;;;;;15.30;7.65;;;27.20;99.90;;;;;;4986043;28;20056;-81
2022/05/28 12:57:35;;;;;;;205.02;152.10;;;27.00;99.90;;;;;;5009958;28;21118;-80
2022/05/28 13:00:23;;;;;;;29.52;22.23;;;27.00;99.90;;;;;;4995052;28;20108;-79
2022/05/28 13:02:54;;;;;;;28.50;12.57;;;26.90;99.90;;;;;;4987959;28;20092;-77
2022/05/28 13:05:42;;;;;;;12.38;8.55;;;27.00;99.90;;;;;;4982783;28;20124;-79
2022/05/28 13:08:25;;;;;;;14.75;8.27;;;26.90;99.90;;;;;;5013870;28;20052;-80
2022/05/28 13:10:58;;;;;;;17.42;7.60;;;26.90;99.90;;;;;;5013900;28;20049;-83
2022/05/28 13:13:28;;;;;;;23.70;7.72;;;27.10;99.90;;;;;;5012950;28;20092;-79
2022/05/28 13:16:10;;;;;;;20.15;8.38;;;27.10;99.90;;;;;;4980599;28;20133;-80
2022/05/28 13:19:07;;;;;;;18.55;8.43;;;27.20;99.90;;;;;;5014239;28;20165;-81
2022/05/28 13:21:53;;;;;;;15.45;8.35;;;27.30;99.90;;;;;;5012288;28;20057;-82
2022/05/28 13:24:40;;;;;;;26.77;10.35;;;27.20;99.90;;;;;;5011261;28;20042;-82
2022/05/28 13:27:52;;;;;;;16.10;8.25;;;27.30;99.90;;;;;;5021589;28;20106;-80
2022/05/28 13:30:41;;;;;;;13.57;8.82;;;27.60;99.90;;;;;;5055153;28;20075;-79
2022/05/28 13:33:15;;;;;;;19.45;9.00;;;27.50;99.90;;;;;;5035779;28;20046;-80
2022/05/28 13:36:16;;;;;;;13.10;8.23;;;27.60;99.90;;;;;;5033608;28;20041;-81
2022/05/28 13:38:47;;;;;;;71.47;56.20;;;27.60;99.90;;;;;;5036250;28;20139;-81
2022/05/28 13:41:23;;;;;;;76.20;56.13;;;27.50;99.90;;;;;;5036450;28;20057;-82
2022/05/28 13:43:59;;;;;;;19.27;13.93;;;27.50;99.90;;;;;;5054757;28;20053;-79
2022/05/28 13:46:30;;;;;;;14.68;8.57;;;27.50;99.90;;;;;;5053536;28;20045;-82
2022/05/28 13:49:02;;;;;;;18.23;8.50;;;27.50;99.90;;;;;;5055368;28;20068;-81
2022/05/28 13:51:30;;;;;;;14.32;8.35;;;27.70;99.90;;;;;;5056293;28;20469;-78
2022/05/28 13:54:11;;;;;;;15.88;7.32;;;27.70;99.90;;;;;;5035788;28;20116;-76
2022/05/28 13:56:38;;;;;;;159.55;118.10;;;27.70;99.90;;;;;;5036729;28;20072;-79
2022/05/28 13:59:09;;;;;;;81.38;60.67;;;27.50;99.90;;;;;;5035084;28;20065;-76
2022/05/28 14:02:01;;;;;;;109.40;77.10;;;27.60;99.90;;;;;;5037371;28;20041;-79
2022/05/28 14:04:59;;;;;;;18.50;11.43;;;27.50;99.90;;;;;;5041531;28;20096;-78
2022/05/28 14:10:46;;;;;;;12.88;8.45;;;27.60;99.90;;;;;;5035348;28;20119;-78
2022/05/28 14:13:57;;;;;;;29.50;14.77;;;27.70;99.90;;;;;;5036516;28;20044;-82
2022/05/28 14:17:00;;;;;;;20.55;8.85;;;27.60;99.90;;;;;;5050250;28;20049;-78
2022/05/28 14:20:06;;;;;;;15.40;8.25;;;27.50;99.90;;;;;;5039776;28;20071;-78